Airfield :
LOGIN :

Register | Disclaimer

   EN    FR    IT 

 










Legend :    VFR   Marginal VFR   IFR   Intensive IFR   Very Intensive IFR
Visi :
Ceiling :
>= 8 km
>= 3000ft
5 to 8 km
1000 to 3000 ft
1500m to 5 km
500 to 1000 ft
800 to 1500m
200 to 500 ft
< 800m
< 200 ft
Symbols :   Thunderstorms  Fog  Heavy snow  Heavy precipitations  Wind > 20 kt
SIGMETs :     Misc.  Thunderstorms  Icing  Turbulence  Mountain Waves  Volcanic Ashes






- Airport Elevation : 268 ft
- IATA code : BFS


EGAA - Belfast Aldergrove

CURRENT METAR :
  • 052050Z 19005KT 140V220 9999 FEW017 05/02 Q1041

EXPIRED METARs :
  • 052020Z AUTO 19005KT 160V220 9999 OVC017 05/02 Q1041
  • 051950Z AUTO 17004KT 140V210 9999 OVC018 05/02 Q1042
  • 051920Z AUTO 18005KT 150V210 9999 BKN018 BKN027 05/01 Q1042
  • 051850Z AUTO 19006KT 160V220 9999 FEW018 BKN027 05/01 Q1042
  • 051820Z 20007KT 9999 SCT019 05/01 Q1042

TAF COR TAF EGAA
Valid from the 05 at 18:00 until the 06 at 18:00 UTC


051800Z 0518/0618 18008KT 9999 BKN020
TEMPO 0600/0610 BKN012
PROB30
TEMPO 0604/0609 6000 -RADZ BKN007
PROB30
TEMPO 0616/0618 8000 -RA



MET'MAP, your aeronautical weather chart ! - Copyright ORBIFLY December 2007 - Disclaimer

ORBIFLY MET'MAP TEAM :

Programming & Development : Alexandra Zaïnal
Original concept : Baudouin d'Aumeries
Technical & hardware support : Manuel Goepfert
Assistance : Marc-Olivier Méhu




SOURCES & CREDITS :

   NOAA